createdAt,value
2023-05-10T00:00:46.455Z,7.45
2023-05-10T00:03:13.557Z,7.53
2023-05-10T00:05:41.087Z,7.63
2023-05-10T00:08:08.548Z,7.66
2023-05-10T00:10:36.271Z,7.63
2023-05-10T00:13:03.902Z,7.51
2023-05-10T00:15:32.092Z,7.46
2023-05-10T00:17:59.169Z,7.49
2023-05-10T00:20:26.469Z,7.49
2023-05-10T00:22:55.152Z,7.46
2023-05-10T00:25:22.881Z,7.38
2023-05-10T00:27:50.815Z,7.23
2023-05-10T00:30:18.699Z,7.14
2023-05-10T00:32:46.153Z,7.10
2023-05-10T00:35:13.618Z,7.01
2023-05-10T00:37:40.770Z,6.92
2023-05-10T00:40:08.736Z,6.92
2023-05-10T00:42:35.845Z,6.77
2023-05-10T00:45:03.787Z,6.70
2023-05-10T00:47:31.034Z,6.71
2023-05-10T00:49:59.234Z,6.62
2023-05-10T00:52:27.148Z,6.58
2023-05-10T00:54:54.847Z,6.52
2023-05-10T00:57:22.765Z,6.47
2023-05-10T00:59:51.200Z,6.44
2023-05-10T01:02:18.374Z,6.48
2023-05-10T01:04:45.770Z,6.53
2023-05-10T01:07:13.163Z,6.54
2023-05-10T01:09:40.478Z,6.59
2023-05-10T01:12:08.463Z,6.57
2023-05-10T01:14:37.431Z,6.47
2023-05-10T01:17:06.273Z,6.49
2023-05-10T01:19:36.174Z,6.48
2023-05-10T01:22:30.772Z,6.52
2023-05-10T01:25:03.105Z,6.55
2023-05-10T01:27:55.283Z,6.58
2023-05-10T01:31:04.404Z,6.79
2023-05-10T01:33:37.866Z,6.82
2023-05-10T01:36:10.564Z,6.83
2023-05-10T01:38:51.935Z,6.87
2023-05-10T01:41:37.773Z,6.89
2023-05-10T01:44:31.997Z,6.72
2023-05-10T01:47:06.614Z,6.62
2023-05-10T01:49:41.707Z,6.45
2023-05-10T01:52:12.755Z,6.37
2023-05-10T01:54:44.238Z,6.34
2023-05-10T01:57:14.928Z,6.35
2023-05-10T01:59:44.589Z,6.24
2023-05-10T02:02:46.471Z,6.15
2023-05-10T02:05:15.503Z,6.10
2023-05-10T02:07:43.712Z,6.05
2023-05-10T02:10:11.627Z,5.99
2023-05-10T02:12:42.843Z,6.03
2023-05-10T02:15:11.585Z,6.05
2023-05-10T02:17:40.358Z,6.10
2023-05-10T02:20:08.857Z,6.05
2023-05-10T02:22:37.569Z,6.05
2023-05-10T02:25:05.303Z,6.02
2023-05-10T02:27:33.155Z,5.93
2023-05-10T02:30:00.706Z,5.88
2023-05-10T02:32:28.839Z,5.91
2023-05-10T02:34:56.541Z,5.94
2023-05-10T02:37:24.115Z,5.93
2023-05-10T02:39:52.516Z,5.88
2023-05-10T02:42:25.437Z,5.90
2023-05-10T02:44:55.071Z,5.88
2023-05-10T02:47:22.952Z,5.99
2023-05-10T02:49:50.249Z,6.03
2023-05-10T02:52:22.477Z,6.07
2023-05-10T02:54:51.911Z,6.11
2023-05-10T02:57:25.714Z,6.20
2023-05-10T02:59:52.969Z,6.23
2023-05-10T03:02:21.571Z,6.31
2023-05-10T03:04:48.700Z,6.29
2023-05-10T03:07:16.704Z,6.32
2023-05-10T03:09:43.756Z,6.30
2023-05-10T03:12:41.703Z,6.30
2023-05-10T03:15:31.691Z,6.19
2023-05-10T03:18:29.961Z,6.25
2023-05-10T03:21:01.098Z,6.35
2023-05-10T03:23:35.742Z,6.46
2023-05-10T03:26:03.087Z,6.66
2023-05-10T03:28:31.209Z,6.80
2023-05-10T03:30:58.851Z,6.85
2023-05-10T03:33:26.635Z,6.76
2023-05-10T03:35:53.666Z,6.82
2023-05-10T03:38:21.181Z,6.95
2023-05-10T03:40:48.575Z,6.98
2023-05-10T03:43:16.160Z,7.23
2023-05-10T03:45:43.378Z,7.78
2023-05-10T03:48:10.955Z,8.42
2023-05-10T03:50:38.077Z,8.98
2023-05-10T03:53:05.701Z,9.34
2023-05-10T03:55:35.641Z,9.71
2023-05-10T03:58:02.963Z,10.04
2023-05-10T04:00:30.053Z,10.41
2023-05-10T04:02:57.626Z,10.47
2023-05-10T04:05:24.750Z,10.84
2023-05-10T04:07:52.342Z,10.97
2023-05-10T04:10:19.774Z,11.14
2023-05-10T04:12:47.170Z,11.48
2023-05-10T04:15:14.236Z,11.42
2023-05-10T04:17:41.856Z,11.54
2023-05-10T04:20:09.548Z,11.56
2023-05-10T04:22:36.880Z,11.71
2023-05-10T04:25:04.510Z,11.66
2023-05-10T04:27:32.334Z,11.82
2023-05-10T04:29:59.581Z,11.74
2023-05-10T04:32:27.098Z,12.00
2023-05-10T04:34:55.545Z,11.94
2023-05-10T04:37:24.141Z,12.05
2023-05-10T04:39:51.505Z,12.21
2023-05-10T04:42:18.911Z,11.82
2023-05-10T04:44:45.796Z,11.87
2023-05-10T04:47:14.343Z,11.87
2023-05-10T04:49:41.350Z,11.77
2023-05-10T04:52:08.632Z,11.80
2023-05-10T04:54:35.947Z,11.72
2023-05-10T04:57:03.247Z,11.79
2023-05-10T04:59:30.242Z,11.80
2023-05-10T05:01:58.712Z,12.03
2023-05-10T05:04:26.481Z,12.14
2023-05-10T05:06:54.103Z,12.29
2023-05-10T05:09:21.607Z,12.31
2023-05-10T05:11:49.569Z,12.37
2023-05-10T05:14:16.800Z,12.49
2023-05-10T05:16:45.277Z,12.57
2023-05-10T05:19:12.376Z,12.40
2023-05-10T05:21:40.264Z,12.53
2023-05-10T05:24:07.904Z,12.43
2023-05-10T05:26:35.230Z,12.56
2023-05-10T05:29:02.853Z,12.74
2023-05-10T05:31:30.409Z,12.67
2023-05-10T05:33:57.563Z,12.40
2023-05-10T05:36:25.082Z,12.25
2023-05-10T05:38:52.634Z,12.36
2023-05-10T05:41:19.959Z,12.38
2023-05-10T05:43:47.364Z,12.14
2023-05-10T05:46:15.094Z,12.50
2023-05-10T05:48:42.251Z,12.37
2023-05-10T05:51:09.766Z,12.68
2023-05-10T05:53:37.179Z,12.71
2023-05-10T05:56:04.779Z,12.99
2023-05-10T05:58:31.941Z,13.19
2023-05-10T06:00:59.476Z,13.10
2023-05-10T06:03:26.713Z,13.15
2023-05-10T06:05:54.241Z,13.16
2023-05-10T06:08:21.672Z,13.12
2023-05-10T06:10:49.092Z,13.13
2023-05-10T06:13:16.803Z,13.18
2023-05-10T06:15:44.603Z,13.04
2023-05-10T06:18:12.300Z,13.32
2023-05-10T06:20:39.611Z,13.42
2023-05-10T06:23:07.398Z,13.28
2023-05-10T06:25:35.055Z,13.20
2023-05-10T06:28:02.936Z,13.55
2023-05-10T06:30:30.611Z,13.77
2023-05-10T06:32:57.779Z,13.85
2023-05-10T06:35:25.919Z,14.31
2023-05-10T06:37:53.597Z,14.26
2023-05-10T06:40:21.086Z,14.63
2023-05-10T06:42:49.286Z,14.92
2023-05-10T06:45:17.669Z,14.85
2023-05-10T06:47:44.950Z,14.89
2023-05-10T06:50:12.800Z,15.30
2023-05-10T06:52:40.319Z,15.14
2023-05-10T06:55:08.169Z,15.30
2023-05-10T06:57:35.354Z,15.26
2023-05-10T07:00:05.449Z,15.35
2023-05-10T07:02:32.632Z,15.48
2023-05-10T07:05:02.881Z,15.31
2023-05-10T07:07:30.983Z,14.96
2023-05-10T07:09:59.084Z,15.07
2023-05-10T07:12:26.619Z,15.33
2023-05-10T07:14:54.311Z,15.14
2023-05-10T07:17:21.562Z,15.32
2023-05-10T07:19:48.944Z,15.48
2023-05-10T07:22:17.748Z,15.44
2023-05-10T07:24:45.115Z,15.34
2023-05-10T07:27:12.520Z,15.36
2023-05-10T07:29:40.210Z,15.90
2023-05-10T07:32:07.387Z,16.15
2023-05-10T07:34:35.140Z,15.70
2023-05-10T07:37:02.866Z,15.77
2023-05-10T07:39:30.445Z,15.82
2023-05-10T07:41:58.203Z,16.30
2023-05-10T07:44:25.798Z,16.21
2023-05-10T07:46:53.643Z,16.47
2023-05-10T07:49:21.133Z,16.78
2023-05-10T07:51:48.487Z,16.61
2023-05-10T07:54:15.871Z,16.80
2023-05-10T07:56:46.946Z,16.58
2023-05-10T07:59:18.880Z,16.77
2023-05-10T08:01:46.589Z,16.94
2023-05-10T08:04:14.209Z,16.94
2023-05-10T08:06:42.026Z,16.96
2023-05-10T08:09:09.975Z,16.78
2023-05-10T08:11:37.219Z,16.89
2023-05-10T08:14:04.693Z,16.88
2023-05-10T08:16:31.995Z,16.97
2023-05-10T08:18:59.489Z,17.18
2023-05-10T08:21:27.261Z,17.23
2023-05-10T08:23:54.714Z,17.16
2023-05-10T08:26:22.938Z,16.78
2023-05-10T08:28:50.780Z,16.96
2023-05-10T08:31:17.909Z,17.13
2023-05-10T08:33:45.886Z,17.20
2023-05-10T08:36:15.314Z,17.40
2023-05-10T08:38:43.023Z,17.40
2023-05-10T08:41:11.597Z,17.43
2023-05-10T08:43:40.301Z,17.55
2023-05-10T08:46:08.973Z,17.60
2023-05-10T08:48:36.771Z,17.58
2023-05-10T08:51:04.419Z,17.65
2023-05-10T08:53:34.461Z,17.85
2023-05-10T08:56:04.999Z,17.92
2023-05-10T08:58:32.443Z,17.77
2023-05-10T09:01:00.647Z,17.94
2023-05-10T09:03:28.489Z,18.25
2023-05-10T09:05:57.035Z,18.22
2023-05-10T09:08:28.173Z,18.27
2023-05-10T09:10:58.442Z,18.38
2023-05-10T09:13:26.173Z,18.27
2023-05-10T09:15:53.668Z,18.42
2023-05-10T09:18:21.816Z,18.11
2023-05-10T09:20:50.139Z,17.97
2023-05-10T09:23:17.744Z,18.22
2023-05-10T09:25:45.227Z,18.27
2023-05-10T09:28:13.250Z,18.20
2023-05-10T09:30:40.825Z,18.14
2023-05-10T09:33:09.242Z,18.37
2023-05-10T09:35:37.314Z,18.62
2023-05-10T09:38:05.797Z,18.51
2023-05-10T09:40:33.644Z,18.68
2023-05-10T09:43:08.275Z,18.84
2023-05-10T09:45:38.541Z,18.90
2023-05-10T09:48:07.149Z,18.93
2023-05-10T09:50:35.403Z,18.63
2023-05-10T09:53:04.933Z,18.57
2023-05-10T09:55:47.112Z,18.60
2023-05-10T09:58:15.627Z,19.12
2023-05-10T10:00:52.737Z,19.16
2023-05-10T10:03:21.862Z,19.17
2023-05-10T10:05:50.039Z,18.97
2023-05-10T10:08:18.428Z,19.58
2023-05-10T10:10:47.167Z,19.68
2023-05-10T10:13:15.221Z,19.69
2023-05-10T10:15:44.131Z,19.63
2023-05-10T10:18:15.667Z,20.06
2023-05-10T10:20:43.237Z,19.70
2023-05-10T10:23:10.912Z,19.60
2023-05-10T10:25:39.316Z,19.49
2023-05-10T10:28:30.152Z,19.75
2023-05-10T10:31:02.742Z,19.51
2023-05-10T10:34:01.176Z,18.77
2023-05-10T10:36:31.549Z,18.77
2023-05-10T10:39:04.401Z,18.70
2023-05-10T10:41:33.434Z,19.31
2023-05-10T10:44:26.597Z,20.25
2023-05-10T10:47:01.129Z,21.24
2023-05-10T10:49:29.006Z,21.40
2023-05-10T10:52:35.399Z,21.07
2023-05-10T10:55:12.156Z,20.49
2023-05-10T10:57:42.613Z,20.20
2023-05-10T11:00:19.977Z,20.25
2023-05-10T11:02:51.270Z,20.77
2023-05-10T11:05:34.178Z,20.09
2023-05-10T11:08:02.915Z,19.79
2023-05-10T11:10:30.547Z,20.33
2023-05-10T11:13:02.141Z,20.36
2023-05-10T11:15:31.560Z,19.98
2023-05-10T11:17:58.654Z,20.26
2023-05-10T11:20:34.427Z,20.76
2023-05-10T11:23:14.078Z,20.77
2023-05-10T11:25:48.247Z,21.44
2023-05-10T11:28:15.838Z,21.24
2023-05-10T11:30:45.457Z,20.75
2023-05-10T11:33:17.401Z,20.98
2023-05-10T11:35:45.161Z,20.44
2023-05-10T11:38:13.423Z,19.90
2023-05-10T11:40:41.577Z,20.59
2023-05-10T11:43:11.158Z,20.29
2023-05-10T11:45:38.653Z,20.88
2023-05-10T11:48:06.135Z,21.14
2023-05-10T11:50:34.038Z,21.25
2023-05-10T11:53:01.085Z,21.20
2023-05-10T11:55:28.413Z,21.19
2023-05-10T11:57:55.898Z,21.86
2023-05-10T12:00:23.366Z,22.07
2023-05-10T12:02:51.196Z,22.06
2023-05-10T12:05:18.847Z,21.87
2023-05-10T12:07:46.351Z,22.11
2023-05-10T12:10:16.359Z,22.40
2023-05-10T12:12:45.397Z,22.86
2023-05-10T12:15:21.362Z,21.89
2023-05-10T12:17:49.576Z,21.33
2023-05-10T12:20:21.751Z,22.13
2023-05-10T12:22:55.219Z,22.06
2023-05-10T12:25:24.543Z,22.08
2023-05-10T12:27:57.062Z,21.92
2023-05-10T12:30:26.426Z,21.55
2023-05-10T12:32:54.443Z,21.57
2023-05-10T12:35:23.350Z,21.23
2023-05-10T12:37:51.091Z,21.55
2023-05-10T12:40:18.922Z,21.77
2023-05-10T12:42:46.405Z,21.74
2023-05-10T12:45:14.150Z,22.13
2023-05-10T12:47:43.887Z,22.35
2023-05-10T12:50:12.558Z,21.94
2023-05-10T12:52:40.182Z,22.29
2023-05-10T12:55:07.962Z,22.59
2023-05-10T12:57:35.046Z,21.45
2023-05-10T13:00:02.713Z,21.28
2023-05-10T13:02:30.415Z,21.02
2023-05-10T13:04:58.230Z,20.76
2023-05-10T13:07:25.723Z,21.14
2023-05-10T13:09:53.493Z,22.06
2023-05-10T13:12:21.168Z,22.60
2023-05-10T13:14:50.961Z,21.95
2023-05-10T13:17:18.299Z,22.17
2023-05-10T13:19:45.993Z,22.88
2023-05-10T13:22:13.199Z,22.58
2023-05-10T13:24:41.178Z,22.51
2023-05-10T13:27:08.365Z,22.24
2023-05-10T13:29:36.204Z,22.14
2023-05-10T13:32:03.458Z,21.95
2023-05-10T13:34:31.458Z,21.21
2023-05-10T13:36:58.908Z,21.90
2023-05-10T13:39:26.688Z,22.02
2023-05-10T13:41:55.703Z,22.07
2023-05-10T13:44:23.937Z,22.13
2023-05-10T13:46:51.418Z,22.44
2023-05-10T13:49:19.218Z,22.22
2023-05-10T13:51:46.597Z,22.12
2023-05-10T13:54:15.040Z,21.73
2023-05-10T13:56:43.950Z,21.20
2023-05-10T13:59:11.939Z,21.13
2023-05-10T14:01:39.438Z,20.80
2023-05-10T14:04:07.487Z,20.78
2023-05-10T14:06:35.085Z,20.71
2023-05-10T14:09:02.586Z,21.01
2023-05-10T14:11:29.607Z,21.36
2023-05-10T14:13:57.702Z,21.21
2023-05-10T14:16:25.202Z,21.54
2023-05-10T14:18:52.919Z,22.19
2023-05-10T14:21:20.508Z,22.57
2023-05-10T14:23:47.990Z,23.13
2023-05-10T14:26:15.327Z,22.90
2023-05-10T14:28:42.980Z,23.50
2023-05-10T14:31:10.211Z,22.36
2023-05-10T14:33:37.530Z,22.10
2023-05-10T14:36:05.279Z,21.68
2023-05-10T14:38:32.744Z,21.09
2023-05-10T14:41:00.060Z,21.62
2023-05-10T14:43:28.815Z,21.84
2023-05-10T14:45:56.245Z,21.59
2023-05-10T14:48:23.830Z,21.16
2023-05-10T14:50:51.692Z,20.99
2023-05-10T14:53:19.332Z,21.24
2023-05-10T14:55:47.593Z,21.33
2023-05-10T14:58:15.486Z,21.40
2023-05-10T15:00:42.952Z,21.68
2023-05-10T15:03:10.999Z,21.70
2023-05-10T15:05:38.838Z,21.81
2023-05-10T15:08:06.996Z,21.40
2023-05-10T15:10:34.685Z,21.72
2023-05-10T15:13:02.792Z,21.69
2023-05-10T15:15:29.870Z,21.97
2023-05-10T15:17:57.406Z,21.79
2023-05-10T15:20:24.462Z,22.01
2023-05-10T15:22:52.068Z,22.14
2023-05-10T15:25:19.641Z,22.54
2023-05-10T15:27:47.297Z,22.55
2023-05-10T15:30:14.540Z,22.03
2023-05-10T15:32:42.205Z,22.45
2023-05-10T15:35:11.451Z,22.26
2023-05-10T15:37:39.263Z,21.63
2023-05-10T15:40:07.072Z,21.50
2023-05-10T15:42:34.722Z,21.90
2023-05-10T15:45:01.848Z,21.83
2023-05-10T15:47:31.441Z,21.83
2023-05-10T15:49:59.326Z,21.42
2023-05-10T15:52:27.010Z,21.63
2023-05-10T15:54:54.114Z,21.69
2023-05-10T15:57:23.126Z,22.85
2023-05-10T15:59:51.004Z,22.86
2023-05-10T16:02:19.678Z,23.01
2023-05-10T16:04:47.377Z,23.03
2023-05-10T16:07:14.866Z,23.02
2023-05-10T16:09:42.485Z,23.59
2023-05-10T16:12:10.964Z,24.89
2023-05-10T16:14:38.118Z,23.47
2023-05-10T16:17:06.225Z,23.65
2023-05-10T16:19:33.673Z,24.37
2023-05-10T16:22:03.361Z,24.74
2023-05-10T16:24:31.132Z,24.35
2023-05-10T16:26:59.014Z,24.11
2023-05-10T16:29:26.523Z,24.89
2023-05-10T16:31:54.320Z,24.89
2023-05-10T16:34:24.550Z,24.28
2023-05-10T16:36:52.935Z,23.19
2023-05-10T16:39:20.332Z,22.45
2023-05-10T16:41:48.645Z,22.15
2023-05-10T16:44:18.956Z,22.14
2023-05-10T16:46:48.559Z,22.22
2023-05-10T16:49:16.554Z,22.31
2023-05-10T16:51:44.795Z,22.15
2023-05-10T16:54:13.583Z,22.82
2023-05-10T16:56:41.666Z,25.86
2023-05-10T16:59:08.855Z,27.68
2023-05-10T17:01:37.199Z,25.90
2023-05-10T17:04:04.897Z,24.37
2023-05-10T17:06:32.974Z,23.11
2023-05-10T17:09:01.418Z,23.22
2023-05-10T17:11:30.174Z,23.60
2023-05-10T17:13:58.964Z,22.48
2023-05-10T17:16:27.362Z,22.75
2023-05-10T17:18:56.782Z,22.63
2023-05-10T17:21:24.177Z,22.38
2023-05-10T17:23:51.898Z,21.91
2023-05-10T17:26:20.525Z,21.34
2023-05-10T17:28:47.758Z,20.73
2023-05-10T17:31:16.552Z,20.39
2023-05-10T17:33:43.829Z,20.27
2023-05-10T17:36:11.131Z,19.93
2023-05-10T17:38:38.777Z,19.57
2023-05-10T17:41:06.940Z,19.39
2023-05-10T17:43:34.823Z,19.09
2023-05-10T17:46:02.720Z,18.99
2023-05-10T17:48:31.150Z,18.87
2023-05-10T17:50:58.651Z,18.78
2023-05-10T17:53:26.076Z,18.65
2023-05-10T17:56:00.405Z,18.36
2023-05-10T17:58:29.457Z,18.27
2023-05-10T18:01:00.057Z,17.89
2023-05-10T18:03:28.134Z,17.72
2023-05-10T18:05:56.345Z,17.45
2023-05-10T18:08:27.499Z,17.25
2023-05-10T18:10:55.256Z,17.13
2023-05-10T18:13:25.933Z,16.86
2023-05-10T18:15:54.918Z,16.80
2023-05-10T18:18:22.502Z,16.70
2023-05-10T18:20:58.405Z,16.61
2023-05-10T18:23:26.680Z,16.49
2023-05-10T18:26:00.327Z,16.32
2023-05-10T18:28:28.194Z,16.24
2023-05-10T18:30:56.313Z,16.10
2023-05-10T18:33:25.586Z,15.91
2023-05-10T18:35:53.968Z,15.86
2023-05-10T18:38:23.233Z,15.87
2023-05-10T18:40:55.956Z,15.83
2023-05-10T18:43:23.998Z,15.83
2023-05-10T18:45:52.790Z,15.83
2023-05-10T18:48:22.748Z,15.76
2023-05-10T18:50:51.284Z,15.69
2023-05-10T18:53:19.653Z,15.63
2023-05-10T18:55:57.771Z,15.71
2023-05-10T18:58:30.993Z,15.62
2023-05-10T19:01:00.416Z,15.62
2023-05-10T19:03:29.628Z,15.47
2023-05-10T19:05:57.537Z,15.51
2023-05-10T19:08:25.446Z,15.46
2023-05-10T19:10:55.161Z,15.41
2023-05-10T19:13:22.903Z,15.34
2023-05-10T19:16:06.359Z,15.32
2023-05-10T19:18:35.173Z,15.38
2023-05-10T19:21:06.053Z,15.34
2023-05-10T19:23:34.643Z,15.28
2023-05-10T19:26:03.529Z,15.32
2023-05-10T19:28:31.674Z,15.32
2023-05-10T19:31:07.433Z,15.26
2023-05-10T19:33:34.750Z,15.17
2023-05-10T19:36:02.626Z,15.12
2023-05-10T19:38:29.990Z,15.06
2023-05-10T19:40:58.741Z,15.01
2023-05-10T19:43:31.335Z,14.94
2023-05-10T19:46:01.974Z,14.78
2023-05-10T19:48:29.284Z,14.76
2023-05-10T19:51:01.728Z,14.72
2023-05-10T19:53:29.532Z,14.63
2023-05-10T19:55:57.968Z,14.61
2023-05-10T19:58:25.567Z,14.58
2023-05-10T20:00:53.449Z,14.50
2023-05-10T20:03:33.980Z,14.57
2023-05-10T20:06:02.042Z,14.50
2023-05-10T20:08:29.714Z,14.50
2023-05-10T20:11:02.712Z,14.42
2023-05-10T20:13:30.259Z,14.37
2023-05-10T20:15:58.569Z,14.32
2023-05-10T20:18:27.079Z,14.29
2023-05-10T20:20:56.250Z,14.19
2023-05-10T20:23:23.545Z,14.21
2023-05-10T20:25:50.988Z,14.13
2023-05-10T20:28:23.109Z,14.04
2023-05-10T20:30:55.071Z,14.01
2023-05-10T20:33:22.932Z,13.85
2023-05-10T20:35:50.543Z,13.76
2023-05-10T20:38:18.455Z,13.71
2023-05-10T20:40:46.688Z,13.58
2023-05-10T20:43:13.898Z,13.44
2023-05-10T20:45:41.382Z,13.26
2023-05-10T20:48:09.699Z,13.28
2023-05-10T20:50:37.140Z,13.12
2023-05-10T20:53:04.615Z,12.99
2023-05-10T20:55:32.159Z,12.96
2023-05-10T20:57:59.413Z,12.97
2023-05-10T21:00:26.997Z,12.88
2023-05-10T21:02:54.671Z,12.76
2023-05-10T21:05:22.233Z,12.76
2023-05-10T21:07:49.808Z,12.72
2023-05-10T21:10:17.532Z,12.67
2023-05-10T21:12:44.729Z,12.66
2023-05-10T21:15:12.162Z,12.56
2023-05-10T21:17:39.264Z,12.57
2023-05-10T21:20:07.339Z,12.57
2023-05-10T21:22:34.508Z,12.49
2023-05-10T21:25:02.164Z,12.57
2023-05-10T21:27:29.456Z,12.51
2023-05-10T21:29:56.860Z,12.45
2023-05-10T21:32:24.065Z,12.22
2023-05-10T21:34:51.304Z,12.28
2023-05-10T21:37:18.531Z,12.18
2023-05-10T21:39:46.010Z,12.09
2023-05-10T21:42:13.029Z,12.12
2023-05-10T21:44:40.469Z,12.07
2023-05-10T21:47:07.530Z,12.01
2023-05-10T21:49:34.796Z,11.99
2023-05-10T21:52:02.054Z,11.90
2023-05-10T21:54:29.628Z,11.84
2023-05-10T21:56:56.679Z,11.87
2023-05-10T21:59:24.308Z,11.77
2023-05-10T22:01:51.552Z,11.75
2023-05-10T22:04:18.850Z,11.68
2023-05-10T22:06:45.894Z,11.62
2023-05-10T22:09:13.350Z,11.62
2023-05-10T22:11:40.370Z,11.60
2023-05-10T22:14:07.832Z,11.61
2023-05-10T22:16:34.993Z,11.69
2023-05-10T22:19:02.356Z,11.62
2023-05-10T22:21:29.361Z,11.65
2023-05-10T22:23:56.841Z,11.69
2023-05-10T22:26:23.878Z,11.71
2023-05-10T22:28:51.338Z,11.83
2023-05-10T22:31:18.518Z,11.83
2023-05-10T22:33:46.112Z,11.93
2023-05-10T22:36:15.252Z,11.95
2023-05-10T22:38:42.816Z,11.85
2023-05-10T22:41:09.744Z,11.79
2023-05-10T22:43:37.274Z,11.82
2023-05-10T22:46:04.848Z,11.84
2023-05-10T22:48:34.724Z,11.75
2023-05-10T22:51:01.780Z,11.63
2023-05-10T22:53:29.444Z,11.60
2023-05-10T22:55:56.510Z,11.57
2023-05-10T22:58:24.006Z,11.60
2023-05-10T23:00:51.468Z,11.59
2023-05-10T23:03:18.688Z,11.48
2023-05-10T23:05:45.902Z,11.47
2023-05-10T23:08:13.687Z,11.52
2023-05-10T23:10:40.789Z,11.44
2023-05-10T23:13:08.157Z,11.36
2023-05-10T23:15:36.465Z,11.30
2023-05-10T23:18:06.047Z,11.27
2023-05-10T23:20:33.175Z,11.20
2023-05-10T23:23:00.657Z,11.08
2023-05-10T23:25:27.681Z,11.03
2023-05-10T23:27:55.035Z,10.92
2023-05-10T23:30:22.334Z,10.82
2023-05-10T23:32:49.727Z,10.63
2023-05-10T23:35:16.803Z,10.58
2023-05-10T23:37:44.336Z,10.48
2023-05-10T23:40:11.602Z,10.33
2023-05-10T23:42:39.076Z,10.33
2023-05-10T23:45:06.842Z,10.23
2023-05-10T23:47:34.167Z,10.11
2023-05-10T23:50:01.771Z,10.09
2023-05-10T23:52:29.520Z,10.07
2023-05-10T23:54:56.646Z,10.04
2023-05-10T23:57:24.024Z,9.92
2023-05-10T23:59:51.668Z,9.84
